sensor_id;sensor_type;location;lat;lon;timestamp;temperature;humidity
21772;DHT22;11047;47.904;8.110;2023-12-20T00:00:09;4.10;99.90
21772;DHT22;11047;47.904;8.110;2023-12-20T00:02:36;4.00;99.90
21772;DHT22;11047;47.904;8.110;2023-12-20T00:05:05;4.00;99.90
21772;DHT22;11047;47.904;8.110;2023-12-20T00:07:32;4.10;99.90
21772;DHT22;11047;47.904;8.110;2023-12-20T00:09:58;4.20;99.90
21772;DHT22;11047;47.904;8.110;2023-12-20T00:12:25;4.10;99.90
21772;DHT22;11047;47.904;8.110;2023-12-20T00:14:52;4.10;99.90
21772;DHT22;11047;47.904;8.110;2023-12-20T00:17:18;4.10;99.90
21772;DHT22;11047;47.904;8.110;2023-12-20T00:19:45;4.20;99.90
21772;DHT22;11047;47.904;8.110;2023-12-20T00:22:13;4.20;99.90
21772;DHT22;11047;47.904;8.110;2023-12-20T00:24:40;4.20;99.90
21772;DHT22;11047;47.904;8.110;2023-12-20T00:27:06;4.20;99.90
21772;DHT22;11047;47.904;8.110;2023-12-20T00:29:33;4.20;99.90
21772;DHT22;11047;47.904;8.110;2023-12-20T00:32:00;4.10;99.90
21772;DHT22;11047;47.904;8.110;2023-12-20T00:34:26;4.00;99.90
21772;DHT22;11047;47.904;8.110;2023-12-20T00:36:53;4.00;99.90
21772;DHT22;11047;47.904;8.110;2023-12-20T00:39:21;4.00;99.90
21772;DHT22;11047;47.904;8.110;2023-12-20T00:41:49;4.90;99.90
21772;DHT22;11047;47.904;8.110;2023-12-20T00:44:16;4.00;99.90
21772;DHT22;11047;47.904;8.110;2023-12-20T00:46:42;4.00;99.90
21772;DHT22;11047;47.904;8.110;2023-12-20T00:49:09;4.20;99.90
21772;DHT22;11047;47.904;8.110;2023-12-20T00:51:36;4.20;99.90
21772;DHT22;11047;47.904;8.110;2023-12-20T00:54:02;4.20;99.90
21772;DHT22;11047;47.904;8.110;2023-12-20T00:56:31;4.30;99.90
21772;DHT22;11047;47.904;8.110;2023-12-20T00:58:57;5.20;99.90
21772;DHT22;11047;47.904;8.110;2023-12-20T01:01:24;4.20;99.90
21772;DHT22;11047;47.904;8.110;2023-12-20T01:03:51;4.30;99.90
21772;DHT22;11047;47.904;8.110;2023-12-20T01:06:18;4.20;99.90
21772;DHT22;11047;47.904;8.110;2023-12-20T01:08:45;4.90;99.90
21772;DHT22;11047;47.904;8.110;2023-12-20T01:11:11;5.00;99.90
21772;DHT22;11047;47.904;8.110;2023-12-20T01:13:39;4.50;99.90
21772;DHT22;11047;47.904;8.110;2023-12-20T01:16:06;4.60;99.90
21772;DHT22;11047;47.904;8.110;2023-12-20T01:18:33;4.70;99.90
21772;DHT22;11047;47.904;8.110;2023-12-20T01:21:01;4.70;99.90
21772;DHT22;11047;47.904;8.110;2023-12-20T01:23:28;4.70;99.90
21772;DHT22;11047;47.904;8.110;2023-12-20T01:25:55;4.70;99.90
21772;DHT22;11047;47.904;8.110;2023-12-20T01:28:21;4.80;99.90
21772;DHT22;11047;47.904;8.110;2023-12-20T01:30:49;5.60;99.90
21772;DHT22;11047;47.904;8.110;2023-12-20T01:33:16;4.80;99.90
21772;DHT22;11047;47.904;8.110;2023-12-20T01:35:43;4.80;99.90
21772;DHT22;11047;47.904;8.110;2023-12-20T01:38:09;4.80;99.90
21772;DHT22;11047;47.904;8.110;2023-12-20T01:40:36;5.10;99.90
21772;DHT22;11047;47.904;8.110;2023-12-20T01:43:06;4.70;99.90
21772;DHT22;11047;47.904;8.110;2023-12-20T01:45:33;4.70;99.90
21772;DHT22;11047;47.904;8.110;2023-12-20T01:48:01;4.70;99.90
21772;DHT22;11047;47.904;8.110;2023-12-20T01:50:28;4.70;99.90
21772;DHT22;11047;47.904;8.110;2023-12-20T01:52:56;4.70;99.90
21772;DHT22;11047;47.904;8.110;2023-12-20T01:55:24;4.70;99.90
21772;DHT22;11047;47.904;8.110;2023-12-20T01:57:50;4.60;99.90
21772;DHT22;11047;47.904;8.110;2023-12-20T02:00:17;4.50;99.90
21772;DHT22;11047;47.904;8.110;2023-12-20T02:02:46;4.50;99.90
21772;DHT22;11047;47.904;8.110;2023-12-20T02:05:14;4.40;99.90
21772;DHT22;11047;47.904;8.110;2023-12-20T02:07:41;4.40;99.90
21772;DHT22;11047;47.904;8.110;2023-12-20T02:10:08;4.40;99.90
21772;DHT22;11047;47.904;8.110;2023-12-20T02:12:34;4.40;99.90
21772;DHT22;11047;47.904;8.110;2023-12-20T02:15:01;4.30;99.90
21772;DHT22;11047;47.904;8.110;2023-12-20T02:17:28;4.30;99.90
21772;DHT22;11047;47.904;8.110;2023-12-20T02:19:56;4.20;99.90
21772;DHT22;11047;47.904;8.110;2023-12-20T02:22:24;4.20;99.90
21772;DHT22;11047;47.904;8.110;2023-12-20T02:24:50;4.60;99.90
21772;DHT22;11047;47.904;8.110;2023-12-20T02:27:17;4.40;99.90
21772;DHT22;11047;47.904;8.110;2023-12-20T02:29:44;4.20;99.90
21772;DHT22;11047;47.904;8.110;2023-12-20T02:32:12;4.10;99.90
21772;DHT22;11047;47.904;8.110;2023-12-20T02:34:39;4.10;99.90
21772;DHT22;11047;47.904;8.110;2023-12-20T02:37:05;4.10;99.90
21772;DHT22;11047;47.904;8.110;2023-12-20T02:39:34;4.10;99.90
21772;DHT22;11047;47.904;8.110;2023-12-20T02:42:00;4.00;99.90
21772;DHT22;11047;47.904;8.110;2023-12-20T02:44:27;4.00;99.90
21772;DHT22;11047;47.904;8.110;2023-12-20T02:46:54;4.00;99.90
21772;DHT22;11047;47.904;8.110;2023-12-20T02:49:20;3.90;99.90
21772;DHT22;11047;47.904;8.110;2023-12-20T02:51:47;3.90;99.90
21772;DHT22;11047;47.904;8.110;2023-12-20T02:54:14;3.80;99.90
21772;DHT22;11047;47.904;8.110;2023-12-20T02:56:42;3.80;99.90
21772;DHT22;11047;47.904;8.110;2023-12-20T02:59:08;3.80;99.90
21772;DHT22;11047;47.904;8.110;2023-12-20T03:01:35;3.80;99.90
21772;DHT22;11047;47.904;8.110;2023-12-20T03:04:07;3.80;99.90
21772;DHT22;11047;47.904;8.110;2023-12-20T03:06:34;3.80;99.90
21772;DHT22;11047;47.904;8.110;2023-12-20T03:09:01;3.70;99.90
21772;DHT22;11047;47.904;8.110;2023-12-20T03:11:27;3.70;99.90
21772;DHT22;11047;47.904;8.110;2023-12-20T03:13:56;3.70;99.90
21772;DHT22;11047;47.904;8.110;2023-12-20T03:16:22;3.70;99.90
21772;DHT22;11047;47.904;8.110;2023-12-20T03:18:49;3.70;99.90
21772;DHT22;11047;47.904;8.110;2023-12-20T03:21:16;3.70;99.90
21772;DHT22;11047;47.904;8.110;2023-12-20T03:23:43;3.70;99.90
21772;DHT22;11047;47.904;8.110;2023-12-20T03:26:09;3.70;99.90
21772;DHT22;11047;47.904;8.110;2023-12-20T03:28:35;3.70;99.90
21772;DHT22;11047;47.904;8.110;2023-12-20T03:31:03;3.70;99.90
21772;DHT22;11047;47.904;8.110;2023-12-20T03:33:30;3.60;99.90
21772;DHT22;11047;47.904;8.110;2023-12-20T03:35:57;3.60;99.90
21772;DHT22;11047;47.904;8.110;2023-12-20T03:38:23;3.40;99.90
21772;DHT22;11047;47.904;8.110;2023-12-20T03:40:50;3.40;99.90
21772;DHT22;11047;47.904;8.110;2023-12-20T03:43:17;3.40;99.90
21772;DHT22;11047;47.904;8.110;2023-12-20T03:45:43;3.40;99.90
21772;DHT22;11047;47.904;8.110;2023-12-20T03:48:11;3.50;99.90
21772;DHT22;11047;47.904;8.110;2023-12-20T03:50:38;3.50;99.90
21772;DHT22;11047;47.904;8.110;2023-12-20T03:53:05;3.50;99.90
21772;DHT22;11047;47.904;8.110;2023-12-20T03:55:31;3.40;99.90
21772;DHT22;11047;47.904;8.110;2023-12-20T03:57:58;3.30;99.90
21772;DHT22;11047;47.904;8.110;2023-12-20T04:00:25;3.20;99.90
21772;DHT22;11047;47.904;8.110;2023-12-20T04:02:51;3.10;99.90
21772;DHT22;11047;47.904;8.110;2023-12-20T04:05:19;3.20;99.90
21772;DHT22;11047;47.904;8.110;2023-12-20T04:07:46;3.10;99.90
21772;DHT22;11047;47.904;8.110;2023-12-20T04:10:13;3.10;99.90
21772;DHT22;11047;47.904;8.110;2023-12-20T04:12:39;3.00;99.90
21772;DHT22;11047;47.904;8.110;2023-12-20T04:15:06;3.00;99.90
21772;DHT22;11047;47.904;8.110;2023-12-20T04:17:34;3.00;99.90
21772;DHT22;11047;47.904;8.110;2023-12-20T04:20:01;3.00;99.90
21772;DHT22;11047;47.904;8.110;2023-12-20T04:22:29;2.90;99.90
21772;DHT22;11047;47.904;8.110;2023-12-20T04:24:56;2.90;99.90
21772;DHT22;11047;47.904;8.110;2023-12-20T04:27:22;2.90;99.90
21772;DHT22;11047;47.904;8.110;2023-12-20T04:29:49;2.90;99.90
21772;DHT22;11047;47.904;8.110;2023-12-20T04:32:16;2.80;99.90
21772;DHT22;11047;47.904;8.110;2023-12-20T04:34:42;2.70;99.90
21772;DHT22;11047;47.904;8.110;2023-12-20T04:37:09;2.60;99.90
21772;DHT22;11047;47.904;8.110;2023-12-20T04:39:37;2.60;99.90
21772;DHT22;11047;47.904;8.110;2023-12-20T04:42:04;2.50;99.90
21772;DHT22;11047;47.904;8.110;2023-12-20T04:44:31;2.50;99.90
21772;DHT22;11047;47.904;8.110;2023-12-20T04:46:57;2.50;99.90
21772;DHT22;11047;47.904;8.110;2023-12-20T04:49:24;2.60;99.90
21772;DHT22;11047;47.904;8.110;2023-12-20T04:51:51;2.80;99.90
21772;DHT22;11047;47.904;8.110;2023-12-20T04:54:17;2.50;99.90
21772;DHT22;11047;47.904;8.110;2023-12-20T04:56:45;2.60;99.90
21772;DHT22;11047;47.904;8.110;2023-12-20T04:59:12;2.40;99.90
21772;DHT22;11047;47.904;8.110;2023-12-20T05:01:40;2.50;99.90
21772;DHT22;11047;47.904;8.110;2023-12-20T05:04:07;2.50;99.90
21772;DHT22;11047;47.904;8.110;2023-12-20T05:06:33;2.70;99.90
21772;DHT22;11047;47.904;8.110;2023-12-20T05:09:00;2.50;99.90
21772;DHT22;11047;47.904;8.110;2023-12-20T05:11:27;2.50;99.90
21772;DHT22;11047;47.904;8.110;2023-12-20T05:13:55;2.40;99.90
21772;DHT22;11047;47.904;8.110;2023-12-20T05:16:22;2.40;99.90
21772;DHT22;11047;47.904;8.110;2023-12-20T05:18:49;2.40;99.90
21772;DHT22;11047;47.904;8.110;2023-12-20T05:21:17;2.40;99.90
21772;DHT22;11047;47.904;8.110;2023-12-20T05:23:45;2.50;99.90
21772;DHT22;11047;47.904;8.110;2023-12-20T05:26:12;2.40;99.90
21772;DHT22;11047;47.904;8.110;2023-12-20T05:28:38;2.50;99.90
21772;DHT22;11047;47.904;8.110;2023-12-20T05:31:06;2.50;99.90
21772;DHT22;11047;47.904;8.110;2023-12-20T05:33:33;2.50;99.90
21772;DHT22;11047;47.904;8.110;2023-12-20T05:36:00;2.60;99.90
21772;DHT22;11047;47.904;8.110;2023-12-20T05:38:27;2.60;99.90
21772;DHT22;11047;47.904;8.110;2023-12-20T05:40:53;2.60;99.90
21772;DHT22;11047;47.904;8.110;2023-12-20T05:43:20;2.60;99.90
21772;DHT22;11047;47.904;8.110;2023-12-20T05:45:47;2.60;99.90
21772;DHT22;11047;47.904;8.110;2023-12-20T05:48:15;2.60;99.90
21772;DHT22;11047;47.904;8.110;2023-12-20T05:50:41;2.60;99.90
21772;DHT22;11047;47.904;8.110;2023-12-20T05:53:08;2.70;99.90
21772;DHT22;11047;47.904;8.110;2023-12-20T05:55:37;2.70;99.90
21772;DHT22;11047;47.904;8.110;2023-12-20T05:58:04;2.70;99.90
21772;DHT22;11047;47.904;8.110;2023-12-20T06:00:31;2.80;99.90
21772;DHT22;11047;47.904;8.110;2023-12-20T06:02:57;2.80;99.90
21772;DHT22;11047;47.904;8.110;2023-12-20T06:05:25;2.90;99.90
21772;DHT22;11047;47.904;8.110;2023-12-20T06:07:52;2.90;99.90
21772;DHT22;11047;47.904;8.110;2023-12-20T06:10:19;3.00;99.90
21772;DHT22;11047;47.904;8.110;2023-12-20T06:12:47;3.00;99.90
21772;DHT22;11047;47.904;8.110;2023-12-20T06:15:15;3.30;99.90
21772;DHT22;11047;47.904;8.110;2023-12-20T06:17:42;3.10;99.90
21772;DHT22;11047;47.904;8.110;2023-12-20T06:20:09;3.00;99.90
21772;DHT22;11047;47.904;8.110;2023-12-20T06:22:37;3.10;99.90
21772;DHT22;11047;47.904;8.110;2023-12-20T06:25:04;3.10;99.90
21772;DHT22;11047;47.904;8.110;2023-12-20T06:27:32;3.10;99.90
21772;DHT22;11047;47.904;8.110;2023-12-20T06:29:59;3.40;99.90
21772;DHT22;11047;47.904;8.110;2023-12-20T06:32:25;3.80;99.90
21772;DHT22;11047;47.904;8.110;2023-12-20T06:34:54;3.10;99.90
21772;DHT22;11047;47.904;8.110;2023-12-20T06:37:21;3.30;99.90
21772;DHT22;11047;47.904;8.110;2023-12-20T06:39:49;3.20;99.90
21772;DHT22;11047;47.904;8.110;2023-12-20T06:42:15;3.20;99.90
21772;DHT22;11047;47.904;8.110;2023-12-20T06:44:42;3.30;99.90
21772;DHT22;11047;47.904;8.110;2023-12-20T06:47:09;3.30;99.90
21772;DHT22;11047;47.904;8.110;2023-12-20T06:49:36;3.30;99.90
21772;DHT22;11047;47.904;8.110;2023-12-20T06:52:03;3.20;99.90
21772;DHT22;11047;47.904;8.110;2023-12-20T06:54:29;3.20;99.90
21772;DHT22;11047;47.904;8.110;2023-12-20T06:56:57;3.30;99.90
21772;DHT22;11047;47.904;8.110;2023-12-20T06:59:24;3.30;99.90
21772;DHT22;11047;47.904;8.110;2023-12-20T07:01:51;3.30;99.90
21772;DHT22;11047;47.904;8.110;2023-12-20T07:04:19;3.30;99.90
21772;DHT22;11047;47.904;8.110;2023-12-20T07:06:47;3.30;99.90
21772;DHT22;11047;47.904;8.110;2023-12-20T07:09:16;4.20;99.90
21772;DHT22;11047;47.904;8.110;2023-12-20T07:11:43;3.30;99.90
21772;DHT22;11047;47.904;8.110;2023-12-20T07:14:11;3.30;99.90
21772;DHT22;11047;47.904;8.110;2023-12-20T07:16:38;3.20;99.90
21772;DHT22;11047;47.904;8.110;2023-12-20T07:19:05;3.20;99.90
21772;DHT22;11047;47.904;8.110;2023-12-20T07:21:32;3.20;99.90
21772;DHT22;11047;47.904;8.110;2023-12-20T07:23:59;3.20;99.90
21772;DHT22;11047;47.904;8.110;2023-12-20T07:26:26;3.30;99.90
21772;DHT22;11047;47.904;8.110;2023-12-20T07:28:53;3.40;99.90
21772;DHT22;11047;47.904;8.110;2023-12-20T07:31:21;3.80;99.90
21772;DHT22;11047;47.904;8.110;2023-12-20T07:33:49;3.20;99.90
21772;DHT22;11047;47.904;8.110;2023-12-20T07:36:16;3.20;99.90
21772;DHT22;11047;47.904;8.110;2023-12-20T07:38:42;3.10;99.90
21772;DHT22;11047;47.904;8.110;2023-12-20T07:41:09;3.20;99.90
21772;DHT22;11047;47.904;8.110;2023-12-20T07:43:36;3.20;99.90
21772;DHT22;11047;47.904;8.110;2023-12-20T07:46:06;3.30;99.90
21772;DHT22;11047;47.904;8.110;2023-12-20T07:48:34;3.20;99.90
21772;DHT22;11047;47.904;8.110;2023-12-20T07:51:01;3.30;99.90
21772;DHT22;11047;47.904;8.110;2023-12-20T07:53:28;3.30;99.90
21772;DHT22;11047;47.904;8.110;2023-12-20T07:55:55;3.10;99.90
21772;DHT22;11047;47.904;8.110;2023-12-20T07:58:22;3.90;99.90
21772;DHT22;11047;47.904;8.110;2023-12-20T08:00:48;3.70;99.90
21772;DHT22;11047;47.904;8.110;2023-12-20T08:03:15;3.40;99.90
21772;DHT22;11047;47.904;8.110;2023-12-20T08:05:43;3.10;99.90
21772;DHT22;11047;47.904;8.110;2023-12-20T08:08:10;2.70;99.90
21772;DHT22;11047;47.904;8.110;2023-12-20T08:10:37;3.20;99.90
21772;DHT22;11047;47.904;8.110;2023-12-20T08:13:03;3.30;99.90
21772;DHT22;11047;47.904;8.110;2023-12-20T08:15:30;3.10;99.90
21772;DHT22;11047;47.904;8.110;2023-12-20T08:17:57;3.10;99.90
21772;DHT22;11047;47.904;8.110;2023-12-20T08:20:23;3.80;99.90
21772;DHT22;11047;47.904;8.110;2023-12-20T08:22:51;3.30;99.90
21772;DHT22;11047;47.904;8.110;2023-12-20T08:25:18;3.30;99.90
21772;DHT22;11047;47.904;8.110;2023-12-20T08:27:45;3.30;99.90
21772;DHT22;11047;47.904;8.110;2023-12-20T08:30:11;3.30;99.90
21772;DHT22;11047;47.904;8.110;2023-12-20T08:32:39;3.40;99.90
21772;DHT22;11047;47.904;8.110;2023-12-20T08:35:06;3.50;99.90
21772;DHT22;11047;47.904;8.110;2023-12-20T08:37:32;3.20;99.90
21772;DHT22;11047;47.904;8.110;2023-12-20T08:40:00;3.30;99.90
21772;DHT22;11047;47.904;8.110;2023-12-20T08:42:27;3.30;99.90
21772;DHT22;11047;47.904;8.110;2023-12-20T08:44:56;3.30;99.90
21772;DHT22;11047;47.904;8.110;2023-12-20T08:47:23;3.30;99.90
21772;DHT22;11047;47.904;8.110;2023-12-20T08:49:50;3.30;99.90
21772;DHT22;11047;47.904;8.110;2023-12-20T08:52:17;3.20;99.90
21772;DHT22;11047;47.904;8.110;2023-12-20T08:54:44;3.80;99.90
21772;DHT22;11047;47.904;8.110;2023-12-20T08:57:12;3.20;99.90
21772;DHT22;11047;47.904;8.110;2023-12-20T08:59:39;3.10;99.90
21772;DHT22;11047;47.904;8.110;2023-12-20T09:02:06;3.20;99.90
21772;DHT22;11047;47.904;8.110;2023-12-20T09:04:32;3.20;99.90
21772;DHT22;11047;47.904;8.110;2023-12-20T09:06:59;3.20;99.90
21772;DHT22;11047;47.904;8.110;2023-12-20T09:09:26;3.20;99.90
21772;DHT22;11047;47.904;8.110;2023-12-20T09:11:53;3.30;99.90
21772;DHT22;11047;47.904;8.110;2023-12-20T09:14:21;3.30;99.90
21772;DHT22;11047;47.904;8.110;2023-12-20T09:16:48;3.20;99.90
21772;DHT22;11047;47.904;8.110;2023-12-20T09:19:16;3.20;99.90
21772;DHT22;11047;47.904;8.110;2023-12-20T09:21:43;3.60;99.90
21772;DHT22;11047;47.904;8.110;2023-12-20T09:24:09;3.20;99.90
21772;DHT22;11047;47.904;8.110;2023-12-20T09:26:36;3.10;99.90
21772;DHT22;11047;47.904;8.110;2023-12-20T09:29:05;3.10;99.90
21772;DHT22;11047;47.904;8.110;2023-12-20T09:31:35;3.50;99.90
21772;DHT22;11047;47.904;8.110;2023-12-20T09:34:02;2.90;99.90
21772;DHT22;11047;47.904;8.110;2023-12-20T09:36:29;2.80;99.90
21772;DHT22;11047;47.904;8.110;2023-12-20T09:38:59;2.80;99.90
21772;DHT22;11047;47.904;8.110;2023-12-20T09:41:26;2.60;99.90
21772;DHT22;11047;47.904;8.110;2023-12-20T09:43:54;2.60;99.90
21772;DHT22;11047;47.904;8.110;2023-12-20T09:46:24;2.60;99.90
21772;DHT22;11047;47.904;8.110;2023-12-20T09:48:54;2.70;99.90
21772;DHT22;11047;47.904;8.110;2023-12-20T09:51:21;2.70;99.90
21772;DHT22;11047;47.904;8.110;2023-12-20T09:53:48;2.60;99.90
21772;DHT22;11047;47.904;8.110;2023-12-20T09:56:15;2.70;99.90
21772;DHT22;11047;47.904;8.110;2023-12-20T09:58:41;2.50;99.90
21772;DHT22;11047;47.904;8.110;2023-12-20T10:01:08;2.50;99.90
21772;DHT22;11047;47.904;8.110;2023-12-20T10:03:35;2.40;99.90
21772;DHT22;11047;47.904;8.110;2023-12-20T10:06:04;3.20;99.90
21772;DHT22;11047;47.904;8.110;2023-12-20T10:08:31;2.60;99.90
21772;DHT22;11047;47.904;8.110;2023-12-20T10:10:58;2.50;99.90
21772;DHT22;11047;47.904;8.110;2023-12-20T10:13:27;2.60;99.90
21772;DHT22;11047;47.904;8.110;2023-12-20T10:15:54;3.30;99.90
21772;DHT22;11047;47.904;8.110;2023-12-20T10:18:21;2.60;99.90
21772;DHT22;11047;47.904;8.110;2023-12-20T10:20:48;3.30;99.90
21772;DHT22;11047;47.904;8.110;2023-12-20T10:23:16;2.70;99.90
21772;DHT22;11047;47.904;8.110;2023-12-20T10:25:43;2.50;99.90
21772;DHT22;11047;47.904;8.110;2023-12-20T10:28:21;2.50;99.90
21772;DHT22;11047;47.904;8.110;2023-12-20T10:30:53;2.50;99.90
21772;DHT22;11047;47.904;8.110;2023-12-20T10:33:23;2.50;99.90
21772;DHT22;11047;47.904;8.110;2023-12-20T10:35:50;2.40;99.90
21772;DHT22;11047;47.904;8.110;2023-12-20T10:38:18;2.40;99.90
21772;DHT22;11047;47.904;8.110;2023-12-20T10:40:45;2.40;99.90
21772;DHT22;11047;47.904;8.110;2023-12-20T10:43:12;2.40;99.90
21772;DHT22;11047;47.904;8.110;2023-12-20T10:45:39;2.80;99.90
21772;DHT22;11047;47.904;8.110;2023-12-20T10:48:07;2.40;99.90
21772;DHT22;11047;47.904;8.110;2023-12-20T10:50:36;2.50;99.90
21772;DHT22;11047;47.904;8.110;2023-12-20T10:53:05;2.50;99.90
21772;DHT22;11047;47.904;8.110;2023-12-20T10:55:34;2.50;99.90
21772;DHT22;11047;47.904;8.110;2023-12-20T11:00:44;2.50;99.90
21772;DHT22;11047;47.904;8.110;2023-12-20T11:03:12;2.50;99.90
21772;DHT22;11047;47.904;8.110;2023-12-20T11:05:41;2.30;99.90
21772;DHT22;11047;47.904;8.110;2023-12-20T11:08:12;2.50;99.90
21772;DHT22;11047;47.904;8.110;2023-12-20T11:10:42;2.40;99.90
21772;DHT22;11047;47.904;8.110;2023-12-20T11:13:12;2.30;99.90
21772;DHT22;11047;47.904;8.110;2023-12-20T11:15:42;2.20;99.90
21772;DHT22;11047;47.904;8.110;2023-12-20T11:18:09;2.30;99.90
21772;DHT22;11047;47.904;8.110;2023-12-20T11:20:36;2.30;99.90
21772;DHT22;11047;47.904;8.110;2023-12-20T11:23:03;2.10;99.90
21772;DHT22;11047;47.904;8.110;2023-12-20T11:25:30;2.10;99.90
21772;DHT22;11047;47.904;8.110;2023-12-20T11:28:08;1.90;99.90
21772;DHT22;11047;47.904;8.110;2023-12-20T11:30:42;2.10;99.90
21772;DHT22;11047;47.904;8.110;2023-12-20T11:33:09;2.00;99.90
21772;DHT22;11047;47.904;8.110;2023-12-20T11:35:36;3.30;99.90
21772;DHT22;11047;47.904;8.110;2023-12-20T11:38:04;2.70;99.90
21772;DHT22;11047;47.904;8.110;2023-12-20T11:40:33;2.00;99.90
21772;DHT22;11047;47.904;8.110;2023-12-20T11:43:01;1.90;99.90
21772;DHT22;11047;47.904;8.110;2023-12-20T11:45:30;2.10;99.90
21772;DHT22;11047;47.904;8.110;2023-12-20T11:47:57;1.90;99.90
21772;DHT22;11047;47.904;8.110;2023-12-20T11:50:24;2.10;99.90
21772;DHT22;11047;47.904;8.110;2023-12-20T11:52:52;2.00;99.90
21772;DHT22;11047;47.904;8.110;2023-12-20T11:55:19;1.90;99.90
21772;DHT22;11047;47.904;8.110;2023-12-20T11:57:46;2.10;99.90
21772;DHT22;11047;47.904;8.110;2023-12-20T12:00:13;2.50;99.90
21772;DHT22;11047;47.904;8.110;2023-12-20T12:02:41;2.20;99.90
21772;DHT22;11047;47.904;8.110;2023-12-20T12:05:15;2.20;99.90
21772;DHT22;11047;47.904;8.110;2023-12-20T12:10:34;2.00;99.90
21772;DHT22;11047;47.904;8.110;2023-12-20T12:13:01;2.20;99.90
21772;DHT22;11047;47.904;8.110;2023-12-20T12:15:28;2.20;99.90
21772;DHT22;11047;47.904;8.110;2023-12-20T12:17:57;2.40;99.90
21772;DHT22;11047;47.904;8.110;2023-12-20T12:20:24;2.10;99.90
21772;DHT22;11047;47.904;8.110;2023-12-20T12:22:57;2.20;99.90
21772;DHT22;11047;47.904;8.110;2023-12-20T12:25:24;2.00;99.90
21772;DHT22;11047;47.904;8.110;2023-12-20T12:27:51;2.00;99.90
21772;DHT22;11047;47.904;8.110;2023-12-20T12:30:17;2.10;99.90
21772;DHT22;11047;47.904;8.110;2023-12-20T12:32:44;2.00;99.90
21772;DHT22;11047;47.904;8.110;2023-12-20T12:35:13;2.20;99.90
21772;DHT22;11047;47.904;8.110;2023-12-20T12:37:40;2.30;99.90
21772;DHT22;11047;47.904;8.110;2023-12-20T12:40:09;2.10;99.90
21772;DHT22;11047;47.904;8.110;2023-12-20T12:42:36;2.10;99.90
21772;DHT22;11047;47.904;8.110;2023-12-20T12:45:03;2.20;99.90
21772;DHT22;11047;47.904;8.110;2023-12-20T12:47:29;2.10;99.90
21772;DHT22;11047;47.904;8.110;2023-12-20T12:49:56;2.10;99.90
21772;DHT22;11047;47.904;8.110;2023-12-20T12:52:24;2.00;99.90
21772;DHT22;11047;47.904;8.110;2023-12-20T12:54:52;2.10;99.90
21772;DHT22;11047;47.904;8.110;2023-12-20T12:57:19;2.00;99.90
21772;DHT22;11047;47.904;8.110;2023-12-20T12:59:46;2.10;99.90
21772;DHT22;11047;47.904;8.110;2023-12-20T13:02:12;2.00;99.90
21772;DHT22;11047;47.904;8.110;2023-12-20T13:04:39;2.00;99.90
21772;DHT22;11047;47.904;8.110;2023-12-20T13:07:06;2.00;99.90
21772;DHT22;11047;47.904;8.110;2023-12-20T13:09:34;2.00;99.90
21772;DHT22;11047;47.904;8.110;2023-12-20T13:12:01;2.00;99.90
21772;DHT22;11047;47.904;8.110;2023-12-20T13:14:29;2.10;99.90
21772;DHT22;11047;47.904;8.110;2023-12-20T13:16:55;2.10;99.90
21772;DHT22;11047;47.904;8.110;2023-12-20T13:19:22;2.20;99.90
21772;DHT22;11047;47.904;8.110;2023-12-20T13:21:49;2.10;99.90
21772;DHT22;11047;47.904;8.110;2023-12-20T13:24:16;2.10;99.90
21772;DHT22;11047;47.904;8.110;2023-12-20T13:26:47;2.10;99.90
21772;DHT22;11047;47.904;8.110;2023-12-20T13:29:14;2.00;99.90
21772;DHT22;11047;47.904;8.110;2023-12-20T13:31:41;2.10;99.90
21772;DHT22;11047;47.904;8.110;2023-12-20T13:34:08;2.20;99.90
21772;DHT22;11047;47.904;8.110;2023-12-20T13:36:35;2.40;99.90
21772;DHT22;11047;47.904;8.110;2023-12-20T13:39:02;2.30;99.90
21772;DHT22;11047;47.904;8.110;2023-12-20T13:41:30;2.30;99.90
21772;DHT22;11047;47.904;8.110;2023-12-20T13:43:58;2.40;99.90
21772;DHT22;11047;47.904;8.110;2023-12-20T13:46:27;2.30;99.90
21772;DHT22;11047;47.904;8.110;2023-12-20T13:48:53;2.30;99.90
21772;DHT22;11047;47.904;8.110;2023-12-20T13:51:20;2.40;99.90
21772;DHT22;11047;47.904;8.110;2023-12-20T13:53:47;2.40;99.90
21772;DHT22;11047;47.904;8.110;2023-12-20T13:56:14;2.40;99.90
21772;DHT22;11047;47.904;8.110;2023-12-20T13:58:41;2.40;99.90
21772;DHT22;11047;47.904;8.110;2023-12-20T14:01:09;2.40;99.90
21772;DHT22;11047;47.904;8.110;2023-12-20T14:03:37;2.30;99.90
21772;DHT22;11047;47.904;8.110;2023-12-20T14:06:17;2.30;99.90
21772;DHT22;11047;47.904;8.110;2023-12-20T14:08:58;2.40;99.90
21772;DHT22;11047;47.904;8.110;2023-12-20T14:11:38;2.30;99.90
21772;DHT22;11047;47.904;8.110;2023-12-20T14:14:19;2.40;99.90
21772;DHT22;11047;47.904;8.110;2023-12-20T14:17:01;2.40;99.90
21772;DHT22;11047;47.904;8.110;2023-12-20T14:19:31;2.50;99.90
21772;DHT22;11047;47.904;8.110;2023-12-20T14:21:57;2.50;99.90
21772;DHT22;11047;47.904;8.110;2023-12-20T14:24:26;2.40;99.90
21772;DHT22;11047;47.904;8.110;2023-12-20T14:26:53;2.40;99.90
21772;DHT22;11047;47.904;8.110;2023-12-20T14:29:20;2.40;99.90
21772;DHT22;11047;47.904;8.110;2023-12-20T14:31:46;2.30;99.90
21772;DHT22;11047;47.904;8.110;2023-12-20T14:34:16;2.40;99.90
21772;DHT22;11047;47.904;8.110;2023-12-20T14:36:43;2.50;99.90
21772;DHT22;11047;47.904;8.110;2023-12-20T14:39:09;2.50;99.90
21772;DHT22;11047;47.904;8.110;2023-12-20T14:41:38;2.50;99.90
21772;DHT22;11047;47.904;8.110;2023-12-20T14:44:05;2.50;99.90
21772;DHT22;11047;47.904;8.110;2023-12-20T14:46:32;2.50;99.90
21772;DHT22;11047;47.904;8.110;2023-12-20T14:48:58;2.50;99.90
21772;DHT22;11047;47.904;8.110;2023-12-20T14:51:28;2.50;99.90
21772;DHT22;11047;47.904;8.110;2023-12-20T14:53:55;2.50;99.90
21772;DHT22;11047;47.904;8.110;2023-12-20T14:56:24;2.50;99.90
21772;DHT22;11047;47.904;8.110;2023-12-20T14:58:52;2.50;99.90
21772;DHT22;11047;47.904;8.110;2023-12-20T15:01:19;2.50;99.90
21772;DHT22;11047;47.904;8.110;2023-12-20T15:03:46;2.50;99.90
21772;DHT22;11047;47.904;8.110;2023-12-20T15:06:13;2.50;99.90
21772;DHT22;11047;47.904;8.110;2023-12-20T15:08:41;2.50;99.90
21772;DHT22;11047;47.904;8.110;2023-12-20T15:11:08;2.60;99.90
21772;DHT22;11047;47.904;8.110;2023-12-20T15:13:35;2.50;99.90
21772;DHT22;11047;47.904;8.110;2023-12-20T15:16:01;2.50;99.90
21772;DHT22;11047;47.904;8.110;2023-12-20T15:18:30;2.40;99.90
21772;DHT22;11047;47.904;8.110;2023-12-20T15:20:57;3.20;99.90
21772;DHT22;11047;47.904;8.110;2023-12-20T15:23:24;2.40;99.90
21772;DHT22;11047;47.904;8.110;2023-12-20T15:25:55;2.40;99.90
21772;DHT22;11047;47.904;8.110;2023-12-20T15:28:22;2.40;99.90
21772;DHT22;11047;47.904;8.110;2023-12-20T15:30:48;2.40;99.90
21772;DHT22;11047;47.904;8.110;2023-12-20T15:33:15;2.40;99.90
21772;DHT22;11047;47.904;8.110;2023-12-20T15:35:42;2.50;99.90
21772;DHT22;11047;47.904;8.110;2023-12-20T15:38:08;2.30;99.90
21772;DHT22;11047;47.904;8.110;2023-12-20T15:40:35;2.20;99.90
21772;DHT22;11047;47.904;8.110;2023-12-20T15:43:03;2.20;99.90
21772;DHT22;11047;47.904;8.110;2023-12-20T15:45:30;2.30;99.90
21772;DHT22;11047;47.904;8.110;2023-12-20T15:47:57;2.20;99.90
21772;DHT22;11047;47.904;8.110;2023-12-20T15:50:24;2.20;99.90